Airfield :
LOGIN :

Register | Disclaimer

   EN    FR    IT 

 










Legend :    VFR   Marginal VFR   IFR   Intensive IFR   Very Intensive IFR
Visi :
Ceiling :
>= 8 km
>= 3000ft
5 to 8 km
1000 to 3000 ft
1500m to 5 km
500 to 1000 ft
800 to 1500m
200 to 500 ft
< 800m
< 200 ft
Symbols :   Thunderstorms  Fog  Heavy snow  Heavy precipitations  Wind > 20 kt
SIGMETs :     Misc.  Thunderstorms  Icing  Turbulence  Mountain Waves  Volcanic Ashes






- Airport Elevation : 196 ft
- IATA code : SDN


ENSD - Sandane , Anda

CURRENT METAR :
  • 091450Z 29012KT 7000 -SHSN FEW005 BKN020 02/M01 Q0997 RMK WIND 1138FT 29012G22KT

EXPIRED METARs :
  • 091420Z 30009G20KT 250V010 9999 5000E VCSH FEW005 BKN015 02/M01 Q0996 RMK WIND 1138FT 29011G21KT
  • 091350Z 30014G25KT 4000 SHSN VV012 02/M01 Q0995 RMK WIND 1138FT 31009G22KT
  • 091250Z 28006KT 240V360 9999 7000NW VCSH FEW012 SCT022 BKN028 01/M01 Q0993 RESHSN RMK WIND 1138FT 29008KT
  • 091220Z 31008KT 220V030 9999 7000E VCSH FEW005 SCT015 BKN040 03/M02 Q0993 RMK WIND 1138FT VRB08KT
  • 091150Z 31011KT 260V360 9999 VCSH FEW004 SCT021 BKN039 02/M01 Q0992 RMK WIND 1138FT 33013G24KT

TAF N/A



MET'MAP, your aeronautical weather chart ! - Copyright ORBIFLY December 2007 - Disclaimer

ORBIFLY MET'MAP TEAM :

Programming & Development : Alexandra Zaïnal
Concept & original design : Baudouin d'Aumeries
Assistance for programming : Marc-Olivier Méhu
Technical & hardware support : Manuel Goepfert

Contact : metmap@orbifly.com




SOURCES & CREDITS :

   NOAA